Time;durP1;ratioP1;P1;durP2;ratioP2;P2;SDS_P1;SDS_P2;PMS_P1;PMS_P2;Temp;Humidity;BMP_temperature;BMP_pressure;BME280_temperature;BME280_humidity;BME280_pressure;Samples;Min_cycle;Max_cycle;Signal;HPM_P1;HPM_P2
2022/01/09 00:00:21;;;;;;;14.48;9.25;;;;;;;;;;5076044;27;95333;-81
2022/01/09 00:02:47;;;;;;;18.85;9.65;;;;;;;;;;5072622;27;97551;-78
2022/01/09 00:05:14;;;;;;;16.85;10.20;;;;;;;;;;5072461;27;95813;-77
2022/01/09 00:07:40;;;;;;;18.73;10.80;;;;;;;;;;5061964;27;97201;-80
2022/01/09 00:10:07;;;;;;;19.17;10.65;;;;;;;;;;5080336;27;96545;-84
2022/01/09 00:12:34;;;;;;;24.75;11.88;;;;;;;;;;5077117;27;95416;-83
2022/01/09 00:15:00;;;;;;;26.25;13.32;;;;;;;;;;5076082;27;96777;-83
2022/01/09 00:17:26;;;;;;;18.75;11.57;;;;;;;;;;5056113;27;97339;-83
2022/01/09 00:19:53;;;;;;;22.58;11.30;;;;;;;;;;5052423;27;95798;-83
2022/01/09 00:22:28;;;;;;;19.05;11.02;;;;;;;;;;5054079;27;97075;-82
2022/01/09 00:24:54;;;;;;;20.60;11.50;;;;;;;;;;5073311;27;95354;-81
2022/01/09 00:27:20;;;;;;;23.27;11.73;;;;;;;;;;5075829;27;96825;-76
2022/01/09 00:29:46;;;;;;;24.38;11.98;;;;;;;;;;5076437;27;96285;-82
2022/01/09 00:32:13;;;;;;;24.35;12.05;;;;;;;;;;5076055;27;95292;-82
2022/01/09 00:34:39;;;;;;;22.67;11.40;;;;;;;;;;5076087;27;95748;-82
2022/01/09 00:37:06;;;;;;;20.40;6.90;;;;;;;;;;5075613;27;97314;-81
2022/01/09 00:39:32;;;;;;;20.10;6.20;;;;;;;;;;5074643;27;95411;-82
2022/01/09 00:41:59;;;;;;;19.00;5.43;;;;;;;;;;5079108;27;97254;-83
2022/01/09 00:44:25;;;;;;;21.35;5.13;;;;;;;;;;5076208;27;95218;-82
2022/01/09 00:46:52;;;;;;;22.83;4.30;;;;;;;;;;5075635;27;96869;-81
2022/01/09 00:49:18;;;;;;;17.83;3.22;;;;;;;;;;5075636;27;97376;-81
2022/01/09 00:51:44;;;;;;;28.98;3.83;;;;;;;;;;5076443;27;95381;-83
2022/01/09 00:54:11;;;;;;;21.70;3.63;;;;;;;;;;5074292;27;97019;-78
2022/01/09 00:56:37;;;;;;;23.25;3.47;;;;;;;;;;5075733;27;97382;-81
2022/01/09 00:59:03;;;;;;;23.67;3.67;;;;;;;;;;5075983;27;95288;-82
2022/01/09 01:01:30;;;;;;;25.50;4.40;;;;;;;;;;5075333;27;96809;-83
2022/01/09 01:03:56;;;;;;;34.13;4.35;;;;;;;;;;5078924;27;97636;-83
2022/01/09 01:06:22;;;;;;;36.22;4.68;;;;;;;;;;5075834;27;96989;-81
2022/01/09 01:08:49;;;;;;;46.33;5.95;;;;;;;;;;5075005;27;97357;-79
2022/01/09 01:11:15;;;;;;;39.50;4.43;;;;;;;;;;5075524;27;95376;-79
2022/01/09 01:13:41;;;;;;;46.30;5.70;;;;;;;;;;5075714;27;96836;-83
2022/01/09 01:16:08;;;;;;;32.83;4.47;;;;;;;;;;5075092;27;96597;-83
2022/01/09 01:18:34;;;;;;;46.70;6.00;;;;;;;;;;5075920;27;95301;-82
2022/01/09 01:21:01;;;;;;;57.63;5.93;;;;;;;;;;5076122;27;97052;-77
2022/01/09 01:23:27;;;;;;;65.50;6.57;;;;;;;;;;5074747;27;97482;-83
2022/01/09 01:25:54;;;;;;;49.72;6.82;;;;;;;;;;5079400;27;95651;-84
2022/01/09 01:28:21;;;;;;;55.97;6.10;;;;;;;;;;5074889;27;97761;-78
2022/01/09 01:30:47;;;;;;;55.05;6.07;;;;;;;;;;5075513;27;95332;-81
2022/01/09 01:33:13;;;;;;;59.25;6.10;;;;;;;;;;5074830;27;96782;-81
2022/01/09 01:35:40;;;;;;;53.45;5.82;;;;;;;;;;5073233;27;98007;-80
2022/01/09 01:38:06;;;;;;;56.83;7.47;;;;;;;;;;5074373;27;95418;-83
2022/01/09 01:40:33;;;;;;;51.67;7.07;;;;;;;;;;5075311;27;97975;-82
2022/01/09 01:42:59;;;;;;;49.22;6.65;;;;;;;;;;5074470;27;97402;-83
2022/01/09 01:45:25;;;;;;;45.95;5.53;;;;;;;;;;5075252;27;95177;-83
2022/01/09 01:47:52;;;;;;;44.53;6.00;;;;;;;;;;5076836;27;97029;-83
2022/01/09 01:50:19;;;;;;;51.55;5.45;;;;;;;;;;5074051;27;95535;-79
2022/01/09 01:52:49;;;;;;;58.05;5.35;;;;;;;;;;5075079;27;96033;-80
2022/01/09 01:55:16;;;;;;;52.85;7.28;;;;;;;;;;5074738;27;97268;-73
2022/01/09 01:57:43;;;;;;;40.60;6.95;;;;;;;;;;5074283;27;95331;-82
2022/01/09 02:00:11;;;;;;;36.42;4.97;;;;;;;;;;5074854;27;96902;-79
2022/01/09 02:02:38;;;;;;;43.20;5.72;;;;;;;;;;5074716;27;97663;-79
2022/01/09 02:05:05;;;;;;;54.05;5.53;;;;;;;;;;5074690;27;95084;-83
2022/01/09 02:07:31;;;;;;;52.63;5.55;;;;;;;;;;5074302;27;96787;-83
2022/01/09 02:09:58;;;;;;;38.55;4.78;;;;;;;;;;5077354;27;96257;-76
2022/01/09 02:12:24;;;;;;;37.25;5.65;;;;;;;;;;5073913;27;97156;-79
2022/01/09 02:14:50;;;;;;;48.13;6.55;;;;;;;;;;5075030;27;97203;-79
2022/01/09 02:17:20;;;;;;;40.15;5.30;;;;;;;;;;5074280;27;95309;-79
2022/01/09 02:19:50;;;;;;;49.70;5.90;;;;;;;;;;5074915;27;97388;-79
2022/01/09 02:22:16;;;;;;;49.35;5.30;;;;;;;;;;5072774;27;97317;-75
2022/01/09 02:24:43;;;;;;;38.50;4.55;;;;;;;;;;5074462;27;95254;-74
2022/01/09 02:27:10;;;;;;;38.00;4.70;;;;;;;;;;5073527;27;96956;-80
2022/01/09 02:29:36;;;;;;;52.38;5.63;;;;;;;;;;5074969;27;97811;-82
2022/01/09 02:32:03;;;;;;;47.75;6.00;;;;;;;;;;5078045;27;95708;-82
2022/01/09 02:34:29;;;;;;;36.65;4.90;;;;;;;;;;5080517;27;97282;-76
2022/01/09 02:36:56;;;;;;;31.48;3.90;;;;;;;;;;5079480;27;95239;-77
2022/01/09 02:39:22;;;;;;;39.53;5.15;;;;;;;;;;5076572;27;97259;-76
2022/01/09 02:41:48;;;;;;;42.42;5.47;;;;;;;;;;5075284;27;97643;-78
2022/01/09 02:44:14;;;;;;;37.75;4.78;;;;;;;;;;5074664;27;95237;-79
2022/01/09 02:49:20;;;;;;;48.72;5.03;;;;;;;;;;5073918;27;97375;-74
2022/01/09 02:51:46;;;;;;;51.25;5.53;;;;;;;;;;5077441;27;94966;-78
2022/01/09 02:56:57;;;;;;;39.72;5.28;;;;;;;;;;5074567;27;95083;-75
2022/01/09 02:59:23;;;;;;;37.50;4.75;;;;;;;;;;5073610;27;95851;-75
2022/01/09 03:01:50;;;;;;;42.33;5.22;;;;;;;;;;5073240;27;97302;-79
2022/01/09 03:04:16;;;;;;;41.35;5.03;;;;;;;;;;5073332;27;95242;-76
2022/01/09 03:06:43;;;;;;;32.70;4.82;;;;;;;;;;5073996;27;97451;-79
2022/01/09 03:09:09;;;;;;;35.85;4.57;;;;;;;;;;5073555;27;97723;-74
2022/01/09 03:11:37;;;;;;;34.70;4.38;;;;;;;;;;5073923;27;95400;-81
2022/01/09 03:14:03;;;;;;;32.38;5.15;;;;;;;;;;5076715;27;96845;-73
2022/01/09 03:16:30;;;;;;;28.90;4.28;;;;;;;;;;5072537;27;95690;-78
2022/01/09 03:18:56;;;;;;;28.70;4.57;;;;;;;;;;5074030;27;96954;-77
2022/01/09 03:21:23;;;;;;;31.83;5.18;;;;;;;;;;5073304;27;97613;-75
2022/01/09 03:23:49;;;;;;;33.15;4.45;;;;;;;;;;5073414;27;95328;-80
2022/01/09 03:26:15;;;;;;;29.65;4.18;;;;;;;;;;5073175;27;95588;-79
2022/01/09 03:28:41;;;;;;;37.97;4.07;;;;;;;;;;5073285;27;97139;-77
2022/01/09 03:31:08;;;;;;;39.67;5.00;;;;;;;;;;5073804;27;95296;-78
2022/01/09 03:33:34;;;;;;;31.23;5.03;;;;;;;;;;5074246;27;96685;-79
2022/01/09 03:36:01;;;;;;;35.80;5.28;;;;;;;;;;5075797;27;97592;-76
2022/01/09 03:38:27;;;;;;;45.88;4.97;;;;;;;;;;5073243;27;95760;-77
2022/01/09 03:40:53;;;;;;;34.08;4.70;;;;;;;;;;5073153;27;97225;-75
2022/01/09 03:43:19;;;;;;;23.17;3.83;;;;;;;;;;5072667;27;95325;-77
2022/01/09 03:45:46;;;;;;;29.98;4.00;;;;;;;;;;5073422;27;97001;-79
2022/01/09 03:48:12;;;;;;;28.60;3.20;;;;;;;;;;5073055;27;97732;-77
2022/01/09 03:50:38;;;;;;;28.55;3.30;;;;;;;;;;5072960;27;95473;-79
2022/01/09 03:53:06;;;;;;;29.65;3.67;;;;;;;;;;5073083;27;96788;-79
2022/01/09 03:55:33;;;;;;;29.35;4.22;;;;;;;;;;5072709;27;98140;-79
2022/01/09 03:57:59;;;;;;;26.52;3.75;;;;;;;;;;5076191;27;95377;-76
2022/01/09 04:00:25;;;;;;;34.80;4.43;;;;;;;;;;5072613;27;97318;-75
2022/01/09 04:02:53;;;;;;;27.30;3.63;;;;;;;;;;5072836;27;95435;-76
2022/01/09 04:05:20;;;;;;;30.23;4.25;;;;;;;;;;5072157;27;96754;-78
2022/01/09 04:07:46;;;;;;;32.33;3.88;;;;;;;;;;5073113;27;97922;-79
2022/01/09 04:10:30;;;;;;;31.10;5.07;;;;;;;;;;5072718;27;95178;-73
2022/01/09 04:12:59;;;;;;;27.35;3.50;;;;;;;;;;5072644;27;96851;-74
2022/01/09 04:15:27;;;;;;;27.02;3.78;;;;;;;;;;5072207;27;97228;-77
2022/01/09 04:17:55;;;;;;;27.50;3.70;;;;;;;;;;5072853;27;95134;-73
2022/01/09 04:20:22;;;;;;;26.88;3.47;;;;;;;;;;5075943;27;97200;-78
2022/01/09 04:22:49;;;;;;;22.92;4.07;;;;;;;;;;5073239;27;95332;-76
2022/01/09 04:25:16;;;;;;;17.50;3.10;;;;;;;;;;5072482;27;96893;-73
2022/01/09 04:27:42;;;;;;;22.02;2.92;;;;;;;;;;5072369;27;97312;-78
2022/01/09 04:30:09;;;;;;;27.50;3.78;;;;;;;;;;5072923;27;95499;-79
2022/01/09 04:32:35;;;;;;;22.27;3.63;;;;;;;;;;5072502;27;96761;-78
2022/01/09 04:35:02;;;;;;;18.05;2.97;;;;;;;;;;5072884;27;97647;-74
2022/01/09 04:37:29;;;;;;;20.92;3.08;;;;;;;;;;5072237;27;95297;-77
2022/01/09 04:39:56;;;;;;;26.52;4.00;;;;;;;;;;5072632;27;96717;-79
2022/01/09 04:42:29;;;;;;;35.65;3.58;;;;;;;;;;5074975;27;95354;-79
2022/01/09 04:44:55;;;;;;;24.48;3.72;;;;;;;;;;5072840;27;96022;-78
2022/01/09 04:47:22;;;;;;;21.50;3.78;;;;;;;;;;5071307;27;97470;-76
2022/01/09 04:49:49;;;;;;;28.67;3.97;;;;;;;;;;5072934;27;95289;-75
2022/01/09 04:52:20;;;;;;;28.90;3.47;;;;;;;;;;5072406;27;96808;-78
2022/01/09 04:54:46;;;;;;;29.90;3.65;;;;;;;;;;5072003;27;97315;-76
2022/01/09 04:57:13;;;;;;;21.65;3.70;;;;;;;;;;5071948;27;95353;-77
2022/01/09 04:59:39;;;;;;;22.08;3.55;;;;;;;;;;5075170;27;96768;-74
2022/01/09 05:02:05;;;;;;;17.10;3.90;;;;;;;;;;5081623;27;97289;-75
2022/01/09 05:04:32;;;;;;;33.80;3.90;;;;;;;;;;5077669;27;96903;-74
2022/01/09 05:06:58;;;;;;;22.92;3.30;;;;;;;;;;5075437;27;96374;-78
2022/01/09 05:09:24;;;;;;;22.55;4.43;;;;;;;;;;5074847;27;95408;-77
2022/01/09 05:11:51;;;;;;;15.93;3.30;;;;;;;;;;5075468;27;96944;-77
2022/01/09 05:14:17;;;;;;;20.63;3.15;;;;;;;;;;5075100;27;97073;-77
2022/01/09 05:16:45;;;;;;;24.25;4.20;;;;;;;;;;5075518;27;95455;-78
2022/01/09 05:19:20;;;;;;;27.48;3.67;;;;;;;;;;5073168;27;96620;-73
2022/01/09 05:21:48;;;;;;;33.17;4.05;;;;;;;;;;5053749;27;97358;-75
2022/01/09 05:24:15;;;;;;;21.45;3.97;;;;;;;;;;5058605;27;95271;-72
2022/01/09 05:26:42;;;;;;;28.92;3.83;;;;;;;;;;5067068;27;97771;-75
2022/01/09 05:29:08;;;;;;;18.80;3.20;;;;;;;;;;5073090;27;95279;-74
2022/01/09 05:31:34;;;;;;;23.13;3.53;;;;;;;;;;5074439;27;96852;-74
2022/01/09 05:34:01;;;;;;;24.73;3.13;;;;;;;;;;5075154;27;100085;-73
2022/01/09 05:36:27;;;;;;;25.65;3.70;;;;;;;;;;5066220;27;95358;-80
2022/01/09 05:38:53;;;;;;;27.63;4.10;;;;;;;;;;5068492;27;96827;-74
2022/01/09 05:41:21;;;;;;;19.90;3.00;;;;;;;;;;5069546;27;96861;-75
2022/01/09 05:43:47;;;;;;;20.52;3.50;;;;;;;;;;5072966;27;95214;-78
2022/01/09 05:46:14;;;;;;;21.38;3.25;;;;;;;;;;5073806;27;97007;-80
2022/01/09 05:48:40;;;;;;;24.45;3.20;;;;;;;;;;5074308;27;95218;-79
2022/01/09 05:51:07;;;;;;;26.98;3.20;;;;;;;;;;5067479;27;96878;-76
2022/01/09 05:53:33;;;;;;;15.00;2.85;;;;;;;;;;5064008;27;97457;-79
2022/01/09 05:55:59;;;;;;;22.27;3.22;;;;;;;;;;5068548;27;95297;-76
2022/01/09 05:58:26;;;;;;;14.35;2.90;;;;;;;;;;5071520;27;97119;-74
2022/01/09 06:00:52;;;;;;;13.63;2.63;;;;;;;;;;5074326;27;97248;-77
2022/01/09 06:03:18;;;;;;;13.35;3.20;;;;;;;;;;5070438;27;96382;-74
2022/01/09 06:05:45;;;;;;;18.52;2.97;;;;;;;;;;5074115;27;96991;-77
2022/01/09 06:08:11;;;;;;;16.23;3.15;;;;;;;;;;5067755;27;97273;-73
2022/01/09 06:10:37;;;;;;;20.30;3.13;;;;;;;;;;5064170;27;97147;-78
2022/01/09 06:13:04;;;;;;;19.75;2.63;;;;;;;;;;5054263;27;97459;-75
2022/01/09 06:15:30;;;;;;;20.42;3.08;;;;;;;;;;5064786;27;95921;-79
2022/01/09 06:17:57;;;;;;;14.90;3.00;;;;;;;;;;5072104;27;95624;-74
2022/01/09 06:20:23;;;;;;;16.02;2.95;;;;;;;;;;5072382;27;97399;-78
2022/01/09 06:22:49;;;;;;;20.92;2.80;;;;;;;;;;5072649;27;95395;-78
2022/01/09 06:25:16;;;;;;;16.80;2.97;;;;;;;;;;5070387;27;96863;-75
2022/01/09 06:27:42;;;;;;;31.10;3.90;;;;;;;;;;5057345;27;97212;-79
2022/01/09 06:30:09;;;;;;;15.98;2.75;;;;;;;;;;5056571;27;95291;-74
2022/01/09 06:32:35;;;;;;;18.42;3.35;;;;;;;;;;5068935;27;97460;-74
2022/01/09 06:35:02;;;;;;;14.95;3.10;;;;;;;;;;5072582;27;95249;-74
2022/01/09 06:37:29;;;;;;;14.07;2.97;;;;;;;;;;5062315;27;97004;-74
2022/01/09 06:39:55;;;;;;;18.70;2.85;;;;;;;;;;5060742;27;97330;-73
2022/01/09 06:42:21;;;;;;;13.95;3.05;;;;;;;;;;5071800;27;96022;-78
2022/01/09 06:44:48;;;;;;;20.33;3.25;;;;;;;;;;5069399;27;96811;-76
2022/01/09 06:47:14;;;;;;;12.90;3.33;;;;;;;;;;5069213;27;97588;-76
2022/01/09 06:49:41;;;;;;;16.98;2.60;;;;;;;;;;5067950;27;95372;-78
2022/01/09 06:52:07;;;;;;;18.33;3.30;;;;;;;;;;5060800;27;97268;-80
2022/01/09 06:54:33;;;;;;;19.98;2.97;;;;;;;;;;5071319;27;95303;-78
2022/01/09 06:57:00;;;;;;;18.02;3.38;;;;;;;;;;5064185;27;97114;-80
2022/01/09 06:59:26;;;;;;;15.70;2.97;;;;;;;;;;5069427;27;96706;-75
2022/01/09 07:01:53;;;;;;;15.07;3.40;;;;;;;;;;5069392;27;96224;-80
2022/01/09 07:04:20;;;;;;;19.70;3.13;;;;;;;;;;5072123;27;96816;-80
2022/01/09 07:06:47;;;;;;;15.95;3.40;;;;;;;;;;5065916;27;96578;-76
2022/01/09 07:09:13;;;;;;;20.27;3.53;;;;;;;;;;5066407;27;95525;-79
2022/01/09 07:11:39;;;;;;;14.25;3.13;;;;;;;;;;5070590;27;96908;-76
2022/01/09 07:14:06;;;;;;;20.95;2.90;;;;;;;;;;5071736;27;96474;-75
2022/01/09 07:16:33;;;;;;;14.00;2.92;;;;;;;;;;5070433;27;97185;-79
2022/01/09 07:18:59;;;;;;;14.20;2.67;;;;;;;;;;5070536;27;97331;-78
2022/01/09 07:21:26;;;;;;;14.75;2.50;;;;;;;;;;5071771;27;95363;-77
2022/01/09 07:23:53;;;;;;;16.55;3.67;;;;;;;;;;5073079;27;96776;-80
2022/01/09 07:26:19;;;;;;;10.98;2.30;;;;;;;;;;5074079;27;97676;-76
2022/01/09 07:28:45;;;;;;;18.73;3.17;;;;;;;;;;5076380;27;95226;-79
2022/01/09 07:31:12;;;;;;;15.98;3.30;;;;;;;;;;5076186;27;96850;-79
2022/01/09 16:06:57;;;;;;;24.73;4.75;;;;;;;;;;5049851;27;95276;-79
2022/01/09 16:09:23;;;;;;;23.42;4.00;;;;;;;;;;5046049;27;97704;-79
2022/01/09 16:11:50;;;;;;;28.98;5.43;;;;;;;;;;5047985;27;95178;-77
2022/01/09 16:14:16;;;;;;;22.70;5.80;;;;;;;;;;5048333;27;96865;-75
2022/01/09 16:16:43;;;;;;;23.05;5.30;;;;;;;;;;5048066;27;97352;-74
2022/01/09 16:19:10;;;;;;;21.55;5.60;;;;;;;;;;5048767;27;95763;-76
2022/01/09 16:21:36;;;;;;;24.33;5.35;;;;;;;;;;5046920;27;96788;-73
2022/01/09 16:24:03;;;;;;;26.48;5.78;;;;;;;;;;5047850;27;97637;-79
2022/01/09 16:26:30;;;;;;;33.58;6.25;;;;;;;;;;5050959;27;95454;-76
2022/01/09 16:28:56;;;;;;;24.13;6.63;;;;;;;;;;5047460;27;97647;-74
2022/01/09 16:31:22;;;;;;;30.25;7.30;;;;;;;;;;5046687;27;95357;-74
2022/01/09 16:33:50;;;;;;;35.15;7.32;;;;;;;;;;5048528;27;97044;-78
2022/01/09 16:36:18;;;;;;;24.20;6.43;;;;;;;;;;5046292;27;97627;-71
2022/01/09 16:38:45;;;;;;;21.67;6.30;;;;;;;;;;5041486;27;96612;-78
2022/01/09 16:41:11;;;;;;;30.35;6.80;;;;;;;;;;5046909;27;96694;-74
2022/01/09 16:43:38;;;;;;;25.65;6.70;;;;;;;;;;5045639;27;97228;-78
2022/01/09 16:46:05;;;;;;;25.50;6.15;;;;;;;;;;5049560;27;95343;-79
2022/01/09 16:48:32;;;;;;;24.50;5.47;;;;;;;;;;5050453;27;97094;-78
2022/01/09 16:51:04;;;;;;;24.70;5.70;;;;;;;;;;5047403;27;95298;-76
2022/01/09 16:53:32;;;;;;;25.70;6.15;;;;;;;;;;5047293;27;97195;-81
2022/01/09 16:55:59;;;;;;;39.50;12.70;;;;;;;;;;5047725;27;97795;-78
2022/01/09 16:58:27;;;;;;;26.67;8.75;;;;;;;;;;5045134;27;95309;-76
2022/01/09 17:00:54;;;;;;;28.23;7.65;;;;;;;;;;5047186;27;96653;-77
2022/01/09 17:03:21;;;;;;;29.95;7.20;;;;;;;;;;5046512;27;96219;-79
2022/01/09 17:05:48;;;;;;;29.38;7.47;;;;;;;;;;5045235;27;95310;-72
2022/01/09 17:08:15;;;;;;;33.75;8.20;;;;;;;;;;5046584;27;96795;-73
2022/01/09 17:10:41;;;;;;;27.15;8.02;;;;;;;;;;5050451;27;97321;-79
2022/01/09 17:13:09;;;;;;;17.33;6.28;;;;;;;;;;5047501;27;97270;-80
2022/01/09 17:15:36;;;;;;;21.33;6.88;;;;;;;;;;5045709;27;96696;-79
2022/01/09 17:18:03;;;;;;;19.25;6.82;;;;;;;;;;5035936;27;95150;-80
2022/01/09 17:20:30;;;;;;;20.63;6.07;;;;;;;;;;5032948;27;96801;-80
2022/01/09 17:22:56;;;;;;;18.65;6.90;;;;;;;;;;5032957;28;97911;-79
2022/01/09 17:25:23;;;;;;;18.90;6.50;;;;;;;;;;5033694;28;95379;-78
2022/01/09 17:27:49;;;;;;;26.23;6.28;;;;;;;;;;5033566;28;97285;-78
2022/01/09 17:30:16;;;;;;;29.30;8.07;;;;;;;;;;5032731;28;97518;-78
2022/01/09 17:32:42;;;;;;;23.08;8.82;;;;;;;;;;5045659;27;95670;-79
2022/01/09 17:35:09;;;;;;;29.25;10.50;;;;;;;;;;5035684;27;97913;-76
2022/01/09 17:37:36;;;;;;;31.42;10.00;;;;;;;;;;5031981;27;95457;-79
2022/01/09 17:40:03;;;;;;;29.13;8.98;;;;;;;;;;5032926;27;97118;-78
2022/01/09 17:42:30;;;;;;;29.98;9.38;;;;;;;;;;5030905;28;97628;-81
2022/01/09 17:44:58;;;;;;;28.92;7.97;;;;;;;;;;5033721;27;95292;-79
2022/01/09 17:47:25;;;;;;;25.88;9.02;;;;;;;;;;5033106;27;96867;-79
2022/01/09 17:49:52;;;;;;;32.03;9.18;;;;;;;;;;5033091;28;97597;-79
2022/01/09 17:52:18;;;;;;;26.67;9.45;;;;;;;;;;5032043;28;95384;-78
2022/01/09 17:54:45;;;;;;;27.38;7.63;;;;;;;;;;5036021;28;96794;-79
2022/01/09 17:57:12;;;;;;;22.52;7.65;;;;;;;;;;5032435;28;95323;-81
2022/01/09 17:59:39;;;;;;;20.73;7.00;;;;;;;;;;5032885;28;97143;-80
2022/01/09 18:02:06;;;;;;;25.88;8.43;;;;;;;;;;5036248;27;97462;-81
2022/01/09 18:04:32;;;;;;;27.67;7.18;;;;;;;;;;5040340;27;95215;-80
2022/01/09 18:06:59;;;;;;;32.97;7.63;;;;;;;;;;5032322;28;96962;-80
2022/01/09 18:09:25;;;;;;;29.10;6.90;;;;;;;;;;5031977;28;97429;-73
2022/01/09 18:11:51;;;;;;;33.20;7.00;;;;;;;;;;5031412;28;96680;-72
2022/01/09 18:14:22;;;;;;;23.05;6.93;;;;;;;;;;5031207;28;96995;-77
2022/01/09 18:16:49;;;;;;;25.95;6.90;;;;;;;;;;5050105;27;95401;-73
2022/01/09 18:19:19;;;;;;;31.55;7.07;;;;;;;;;;5043354;27;96643;-80
2022/01/09 18:21:46;;;;;;;24.65;7.95;;;;;;;;;;5052015;27;97745;-78
2022/01/09 18:24:13;;;;;;;27.92;7.05;;;;;;;;;;5026149;28;95173;-79
2022/01/09 18:26:44;;;;;;;30.98;9.77;;;;;;;;;;5032872;28;96190;-79
2022/01/09 18:29:11;;;;;;;29.98;11.40;;;;;;;;;;5030485;27;97551;-79
2022/01/09 18:31:37;;;;;;;38.05;11.45;;;;;;;;;;5032283;28;95396;-76
2022/01/09 18:34:04;;;;;;;27.98;10.18;;;;;;;;;;5024385;28;96808;-78
2022/01/09 18:36:30;;;;;;;32.70;10.50;;;;;;;;;;5029361;28;97701;-77
2022/01/09 18:38:56;;;;;;;30.60;9.50;;;;;;;;;;5024953;28;97257;-74
2022/01/09 18:41:23;;;;;;;33.72;11.88;;;;;;;;;;5025696;28;97301;-76
2022/01/09 18:43:49;;;;;;;29.33;11.05;;;;;;;;;;5028170;28;95353;-76
2022/01/09 18:46:16;;;;;;;26.90;11.77;;;;;;;;;;5026593;27;96656;-74
2022/01/09 18:48:42;;;;;;;22.67;9.75;;;;;;;;;;5022783;27;98025;-78
2022/01/09 18:51:08;;;;;;;31.55;10.05;;;;;;;;;;5018265;28;96639;-76
2022/01/09 18:53:35;;;;;;;32.25;10.90;;;;;;;;;;5023542;28;96672;-77
2022/01/09 18:56:01;;;;;;;31.58;11.35;;;;;;;;;;5024521;27;97073;-78
2022/01/09 18:58:28;;;;;;;29.58;9.68;;;;;;;;;;5026470;28;97056;-75
2022/01/09 19:00:54;;;;;;;33.20;11.05;;;;;;;;;;5021335;28;97355;-77
2022/01/09 19:03:21;;;;;;;32.78;9.60;;;;;;;;;;5022527;27;95365;-79
2022/01/09 19:05:48;;;;;;;31.83;11.43;;;;;;;;;;5018929;28;96963;-75
2022/01/09 19:08:17;;;;;;;26.83;10.27;;;;;;;;;;5018582;28;97493;-75
2022/01/09 19:10:45;;;;;;;27.15;9.82;;;;;;;;;;5021081;28;96331;-79
2022/01/09 19:13:11;;;;;;;30.40;9.73;;;;;;;;;;5019668;28;97008;-80
2022/01/09 19:15:38;;;;;;;31.30;8.73;;;;;;;;;;5030433;28;97260;-75
2022/01/09 19:18:05;;;;;;;31.70;9.82;;;;;;;;;;5030961;27;96492;-79
2022/01/09 19:20:32;;;;;;;24.75;8.65;;;;;;;;;;5037075;27;97414;-74
2022/01/09 19:23:01;;;;;;;32.78;8.93;;;;;;;;;;5022886;28;95595;-75
2022/01/09 19:25:28;;;;;;;23.95;8.35;;;;;;;;;;5022606;28;96811;-78
2022/01/09 19:27:55;;;;;;;25.48;8.07;;;;;;;;;;5030724;28;97384;-73
2022/01/09 19:30:21;;;;;;;22.60;7.85;;;;;;;;;;5031243;27;95647;-74
2022/01/09 19:32:47;;;;;;;24.58;8.30;;;;;;;;;;5016136;28;96743;-76
2022/01/09 19:35:14;;;;;;;31.02;9.40;;;;;;;;;;5034855;27;97541;-73
2022/01/09 19:37:41;;;;;;;30.90;10.32;;;;;;;;;;5047057;27;95110;-76
2022/01/09 19:40:07;;;;;;;31.90;10.30;;;;;;;;;;5031406;28;96850;-78
2022/01/09 19:42:34;;;;;;;27.58;9.05;;;;;;;;;;5035542;28;97934;-74
2022/01/09 19:45:02;;;;;;;26.23;9.43;;;;;;;;;;5033501;27;96809;-77
2022/01/09 19:47:29;;;;;;;36.65;10.45;;;;;;;;;;5031596;27;97259;-79
2022/01/09 19:49:55;;;;;;;26.45;8.77;;;;;;;;;;5034197;27;95276;-79
2022/01/09 19:52:23;;;;;;;31.00;9.75;;;;;;;;;;5032370;28;96729;-74
2022/01/09 19:54:49;;;;;;;41.13;11.18;;;;;;;;;;5031172;28;97053;-76
2022/01/09 19:57:19;;;;;;;32.38;9.77;;;;;;;;;;5030831;28;96026;-76
2022/01/09 19:59:45;;;;;;;31.98;9.82;;;;;;;;;;5032469;28;96975;-78
2022/01/09 20:02:12;;;;;;;31.40;9.27;;;;;;;;;;5031176;28;97833;-80
2022/01/09 20:04:38;;;;;;;25.67;9.05;;;;;;;;;;5037663;27;96230;-80
2022/01/09 20:07:06;;;;;;;23.40;9.15;;;;;;;;;;5031544;27;97891;-80
2022/01/09 20:09:33;;;;;;;29.77;9.15;;;;;;;;;;5031310;28;95237;-76
2022/01/09 20:12:00;;;;;;;25.08;8.63;;;;;;;;;;5031696;28;96784;-76
2022/01/09 20:14:27;;;;;;;19.35;7.78;;;;;;;;;;5030266;28;97327;-76
2022/01/09 20:16:53;;;;;;;25.42;8.80;;;;;;;;;;5031416;27;95377;-81
2022/01/09 20:19:19;;;;;;;32.95;10.05;;;;;;;;;;5030130;27;96722;-79
2022/01/09 20:21:47;;;;;;;27.55;8.50;;;;;;;;;;5030238;27;97250;-81
2022/01/09 20:24:14;;;;;;;38.10;10.25;;;;;;;;;;5033728;27;95076;-79
2022/01/09 20:26:42;;;;;;;37.50;10.93;;;;;;;;;;5030718;28;99492;-80
2022/01/09 20:29:09;;;;;;;46.67;14.88;;;;;;;;;;5044918;27;95579;-76
2022/01/09 20:31:38;;;;;;;35.33;11.52;;;;;;;;;;5051262;27;96909;-80
2022/01/09 20:34:05;;;;;;;31.58;9.52;;;;;;;;;;5038931;27;97698;-80
2022/01/09 20:36:32;;;;;;;30.75;8.90;;;;;;;;;;5030626;27;95403;-80
2022/01/09 20:38:59;;;;;;;26.17;8.38;;;;;;;;;;5034508;27;96990;-80
2022/01/09 20:41:25;;;;;;;32.63;9.57;;;;;;;;;;5029963;27;96695;-73
2022/01/09 20:43:52;;;;;;;36.25;10.63;;;;;;;;;;5045360;27;95896;-78
2022/01/09 20:46:19;;;;;;;36.72;12.13;;;;;;;;;;5033440;27;96716;-80
2022/01/09 20:48:45;;;;;;;33.33;10.88;;;;;;;;;;5030933;28;95362;-80
2022/01/09 20:51:12;;;;;;;41.78;14.75;;;;;;;;;;5029637;28;96876;-80
2022/01/09 20:53:39;;;;;;;46.13;13.05;;;;;;;;;;5033148;27;96952;-79
2022/01/09 20:56:07;;;;;;;31.95;12.20;;;;;;;;;;5034071;27;95342;-79
2022/01/09 20:58:33;;;;;;;29.92;11.43;;;;;;;;;;5033202;28;98292;-78
2022/01/09 21:01:01;;;;;;;37.83;10.88;;;;;;;;;;5034534;28;97345;-76
2022/01/09 21:03:27;;;;;;;27.05;10.98;;;;;;;;;;5034176;27;95334;-75
2022/01/09 21:05:54;;;;;;;29.08;11.02;;;;;;;;;;5033884;27;97668;-73
2022/01/09 21:08:21;;;;;;;40.63;11.60;;;;;;;;;;5038059;27;97629;-77
2022/01/09 21:10:47;;;;;;;35.17;11.18;;;;;;;;;;5013602;28;96878;-75
2022/01/09 21:13:14;;;;;;;31.67;12.63;;;;;;;;;;5025621;28;97044;-76
2022/01/09 21:15:40;;;;;;;31.73;13.35;;;;;;;;;;5034505;28;95228;-79
2022/01/09 21:18:07;;;;;;;36.30;12.68;;;;;;;;;;5034216;28;95534;-75
2022/01/09 21:20:34;;;;;;;33.97;11.98;;;;;;;;;;5034639;27;97353;-76
2022/01/09 21:23:01;;;;;;;29.17;10.75;;;;;;;;;;5034533;27;95332;-75
2022/01/09 21:25:29;;;;;;;36.38;10.27;;;;;;;;;;5034109;27;95869;-76
2022/01/09 21:27:56;;;;;;;32.50;11.07;;;;;;;;;;5034158;28;97491;-73
2022/01/09 21:30:22;;;;;;;31.00;11.07;;;;;;;;;;5037633;28;95302;-76
2022/01/09 21:32:49;;;;;;;37.53;12.48;;;;;;;;;;5033879;27;97239;-74
2022/01/09 21:35:15;;;;;;;36.88;13.60;;;;;;;;;;5034135;27;95381;-76
2022/01/09 21:37:41;;;;;;;33.63;12.25;;;;;;;;;;5034269;27;96569;-73
2022/01/09 21:40:10;;;;;;;29.23;12.98;;;;;;;;;;5031342;28;96552;-73
2022/01/09 21:42:36;;;;;;;35.90;11.68;;;;;;;;;;5032927;28;95274;-76
2022/01/09 21:45:03;;;;;;;33.50;12.00;;;;;;;;;;5034234;27;95798;-79
2022/01/09 21:47:29;;;;;;;29.67;11.10;;;;;;;;;;5033572;28;97414;-74
2022/01/09 21:49:55;;;;;;;33.00;11.30;;;;;;;;;;5034620;27;95304;-77
2022/01/09 21:52:22;;;;;;;35.03;11.27;;;;;;;;;;5036572;27;97154;-75
2022/01/09 21:54:49;;;;;;;31.98;10.20;;;;;;;;;;5033352;27;95471;-77
2022/01/09 21:57:15;;;;;;;27.80;10.73;;;;;;;;;;5033756;28;97030;-74
2022/01/09 21:59:42;;;;;;;29.98;10.02;;;;;;;;;;5033261;28;97362;-71
2022/01/09 22:02:09;;;;;;;27.85;9.68;;;;;;;;;;5033459;27;95363;-78
2022/01/09 22:04:39;;;;;;;29.50;10.65;;;;;;;;;;5034392;27;96102;-75
2022/01/09 22:07:06;;;;;;;37.60;10.80;;;;;;;;;;5034362;28;97761;-75
2022/01/09 22:09:34;;;;;;;36.13;10.65;;;;;;;;;;5035003;28;95301;-78
2022/01/09 22:12:02;;;;;;;32.17;11.20;;;;;;;;;;5035575;28;97089;-79
2022/01/09 22:14:28;;;;;;;24.25;10.13;;;;;;;;;;5035133;28;97651;-78
2022/01/09 22:16:54;;;;;;;30.38;12.50;;;;;;;;;;5033435;28;96799;-78
2022/01/09 22:19:21;;;;;;;36.03;12.32;;;;;;;;;;5033647;28;97327;-79
2022/01/09 22:21:47;;;;;;;36.92;11.77;;;;;;;;;;5032963;28;95386;-78
2022/01/09 22:24:13;;;;;;;39.60;11.55;;;;;;;;;;5033702;28;96867;-78
2022/01/09 22:26:40;;;;;;;26.08;9.88;;;;;;;;;;5033751;27;97467;-78
2022/01/09 22:29:06;;;;;;;34.78;11.02;;;;;;;;;;5033734;27;95746;-78
2022/01/09 22:31:32;;;;;;;34.67;10.35;;;;;;;;;;5032938;28;95675;-78
2022/01/09 22:33:59;;;;;;;27.63;10.85;;;;;;;;;;5036513;27;97339;-78
2022/01/09 22:36:45;;;;;;;28.52;10.40;;;;;;;;;;5013355;28;97016;-76
2022/01/09 22:39:11;;;;;;;21.92;9.82;;;;;;;;;;5013008;28;97635;-75
2022/01/09 22:41:40;;;;;;;35.70;11.18;;;;;;;;;;5029431;28;95358;-76
2022/01/09 22:44:06;;;;;;;38.60;10.73;;;;;;;;;;5012922;28;96755;-78
2022/01/09 22:46:37;;;;;;;34.33;11.70;;;;;;;;;;5018935;28;97500;-78
2022/01/09 22:49:04;;;;;;;43.17;11.35;;;;;;;;;;5032769;28;95375;-79
2022/01/09 22:51:31;;;;;;;33.45;11.55;;;;;;;;;;5032802;28;96830;-78
2022/01/09 22:53:58;;;;;;;35.30;12.02;;;;;;;;;;5033338;28;97291;-76
2022/01/09 22:56:24;;;;;;;29.52;11.07;;;;;;;;;;5034499;28;95341;-78
2022/01/09 22:58:50;;;;;;;44.03;12.02;;;;;;;;;;5033290;28;97253;-77
2022/01/09 23:01:17;;;;;;;29.67;10.93;;;;;;;;;;5032435;28;95333;-78